createdAt,value
2023-05-12T00:02:29.833Z,49.00
2023-05-12T00:05:01.987Z,48.52
2023-05-12T00:07:33.867Z,47.46
2023-05-12T00:10:06.508Z,47.62
2023-05-12T00:12:38.515Z,47.77
2023-05-12T00:15:11.113Z,47.70
2023-05-12T00:17:43.056Z,46.84
2023-05-12T00:20:15.319Z,47.21
2023-05-12T00:22:47.057Z,47.13
2023-05-12T00:25:19.276Z,47.69
2023-05-12T00:28:03.246Z,47.24
2023-05-12T00:30:35.190Z,47.36
2023-05-12T00:33:07.162Z,48.18
2023-05-12T00:35:39.034Z,47.09
2023-05-12T00:38:11.459Z,47.25
2023-05-12T00:40:43.529Z,46.73
2023-05-12T00:43:15.620Z,47.43
2023-05-12T00:45:47.484Z,46.36
2023-05-12T00:48:19.413Z,46.83
2023-05-12T00:50:51.282Z,47.12
2023-05-12T00:53:22.995Z,47.55
2023-05-12T00:55:55.711Z,47.27
2023-05-12T00:58:27.977Z,47.69
2023-05-12T01:01:00.073Z,48.83
2023-05-12T01:03:32.333Z,47.66
2023-05-12T01:06:14.554Z,47.68
2023-05-12T01:08:47.156Z,47.41
2023-05-12T01:11:19.590Z,47.71
2023-05-12T01:13:51.236Z,47.54
2023-05-12T01:16:25.014Z,48.02
2023-05-12T01:18:57.320Z,48.66
2023-05-12T01:21:29.365Z,48.15
2023-05-12T01:24:04.036Z,49.03
2023-05-12T01:26:36.008Z,48.44
2023-05-12T01:29:08.088Z,48.10
2023-05-12T01:31:39.796Z,48.61
2023-05-12T01:34:19.070Z,48.60
2023-05-12T01:36:52.419Z,48.81
2023-05-12T01:39:24.351Z,48.63
2023-05-12T01:41:56.418Z,48.09
2023-05-12T01:44:28.377Z,48.28
2023-05-12T01:47:01.573Z,48.44
2023-05-12T01:49:35.583Z,48.58
2023-05-12T01:52:07.421Z,48.27
2023-05-12T01:54:39.136Z,48.46
2023-05-12T01:57:10.953Z,47.50
2023-05-12T01:59:43.061Z,47.29
2023-05-12T02:02:15.307Z,47.61
2023-05-12T02:04:47.503Z,48.13
2023-05-12T02:07:19.393Z,49.07
2023-05-12T02:09:51.128Z,49.55
2023-05-12T02:12:23.335Z,49.19
2023-05-12T02:14:55.597Z,49.54
2023-05-12T02:17:28.879Z,49.22
2023-05-12T02:20:02.597Z,49.35
2023-05-12T02:22:35.171Z,49.61
2023-05-12T02:25:07.841Z,49.92
2023-05-12T02:27:40.042Z,49.43
2023-05-12T02:30:12.398Z,49.30
2023-05-12T02:32:45.284Z,49.26
2023-05-12T02:35:16.939Z,49.15
2023-05-12T02:37:48.694Z,49.12
2023-05-12T02:40:21.171Z,49.59
2023-05-12T02:42:53.264Z,49.63
2023-05-12T02:45:25.216Z,49.97
2023-05-12T02:47:57.936Z,50.33
2023-05-12T02:50:30.708Z,50.60
2023-05-12T02:53:02.625Z,50.98
2023-05-12T02:55:35.110Z,50.67
2023-05-12T02:58:07.180Z,50.49
2023-05-12T03:00:39.227Z,50.74
2023-05-12T03:03:11.006Z,50.65
2023-05-12T03:05:44.724Z,50.14
2023-05-12T03:08:16.670Z,50.22
2023-05-12T03:10:48.454Z,50.22
2023-05-12T03:13:20.308Z,50.52
2023-05-12T03:15:52.178Z,50.35
2023-05-12T03:18:24.201Z,49.80
2023-05-12T03:20:55.830Z,49.98
2023-05-12T03:23:28.558Z,50.15
2023-05-12T03:26:00.561Z,49.78
2023-05-12T03:28:32.543Z,49.99
2023-05-12T03:31:04.654Z,49.82
2023-05-12T03:33:36.667Z,49.52
2023-05-12T03:36:08.836Z,49.82
2023-05-12T03:38:41.473Z,49.63
2023-05-12T03:41:13.407Z,49.27
2023-05-12T03:43:45.074Z,49.63
2023-05-12T03:46:16.931Z,49.61
2023-05-12T03:48:48.878Z,49.56
2023-05-12T03:51:21.026Z,49.59
2023-05-12T03:53:54.246Z,49.32
2023-05-12T03:56:26.337Z,49.70
2023-05-12T03:58:58.354Z,49.86
2023-05-12T04:01:30.355Z,50.15
2023-05-12T04:04:02.094Z,50.48
2023-05-12T04:06:34.414Z,50.46
2023-05-12T04:09:07.742Z,50.80
2023-05-12T04:11:40.670Z,50.91
2023-05-12T04:14:12.596Z,51.31
2023-05-12T04:16:44.406Z,51.61
2023-05-12T04:19:16.299Z,52.10
2023-05-12T04:21:48.157Z,52.16
2023-05-12T04:24:19.878Z,52.12
2023-05-12T04:26:51.851Z,52.20
2023-05-12T04:29:23.593Z,52.39
2023-05-12T04:31:56.289Z,52.54
2023-05-12T04:34:27.990Z,53.26
2023-05-12T04:37:00.043Z,53.68
2023-05-12T04:39:31.882Z,53.96
2023-05-12T04:42:03.689Z,54.45
2023-05-12T04:44:37.139Z,55.23
2023-05-12T04:47:19.688Z,55.61
2023-05-12T04:49:51.381Z,55.89
2023-05-12T04:52:24.765Z,56.18
2023-05-12T04:54:57.391Z,56.10
2023-05-12T04:57:29.364Z,56.36
2023-05-12T05:00:03.091Z,56.51
2023-05-12T05:02:36.100Z,56.97
2023-05-12T05:05:08.850Z,56.80
2023-05-12T05:07:41.336Z,59.13
2023-05-12T05:10:13.343Z,58.88
2023-05-12T05:12:48.325Z,60.75
2023-05-12T05:15:20.611Z,59.70
2023-05-12T05:17:53.812Z,59.54
2023-05-12T05:20:29.162Z,60.18
2023-05-12T05:23:19.153Z,58.06
2023-05-12T05:25:51.568Z,57.26
2023-05-12T05:28:24.536Z,56.91
2023-05-12T05:30:56.189Z,55.51
2023-05-12T05:33:28.683Z,55.35
2023-05-12T05:36:07.005Z,55.15
2023-05-12T05:38:39.201Z,54.80
2023-05-12T05:41:10.742Z,53.97
2023-05-12T05:43:42.633Z,54.05
2023-05-12T05:46:14.761Z,54.11
2023-05-12T05:48:46.512Z,53.93
2023-05-12T05:51:18.918Z,54.16
2023-05-12T05:53:50.796Z,53.46
2023-05-12T05:56:23.117Z,52.70
2023-05-12T05:58:55.649Z,52.47
2023-05-12T06:01:27.238Z,52.99
2023-05-12T06:03:59.422Z,51.86
2023-05-12T06:06:31.436Z,50.61
2023-05-12T06:09:03.719Z,50.60
2023-05-12T06:11:45.741Z,50.30
2023-05-12T06:14:19.154Z,49.72
2023-05-12T06:16:51.924Z,49.72
2023-05-12T06:19:23.571Z,48.88
2023-05-12T06:21:55.250Z,48.80
2023-05-12T06:24:26.871Z,48.11
2023-05-12T06:26:58.536Z,46.71
2023-05-12T06:29:30.263Z,46.76
2023-05-12T06:32:01.909Z,47.39
2023-05-12T06:34:33.937Z,47.75
2023-05-12T06:37:06.270Z,47.36
2023-05-12T06:39:38.819Z,46.58
2023-05-12T06:42:11.505Z,46.79
2023-05-12T06:44:46.748Z,46.51
2023-05-12T06:47:18.461Z,45.31
2023-05-12T06:49:50.586Z,44.41
2023-05-12T06:52:23.977Z,43.38
2023-05-12T06:54:55.671Z,42.22
2023-05-12T06:57:27.329Z,41.75
2023-05-12T07:00:00.621Z,42.54
2023-05-12T07:02:32.770Z,42.45
2023-05-12T07:05:16.082Z,41.93
2023-05-12T07:07:47.810Z,40.45
2023-05-12T07:10:21.271Z,39.62
2023-05-12T07:12:53.353Z,39.78
2023-05-12T07:15:25.409Z,40.13
2023-05-12T07:17:57.581Z,39.23
2023-05-12T07:20:29.399Z,38.55
2023-05-12T07:23:01.109Z,38.35
2023-05-12T07:25:32.895Z,37.59
2023-05-12T07:28:05.249Z,37.75
2023-05-12T07:30:37.894Z,36.56
2023-05-12T07:33:09.779Z,36.42
2023-05-12T07:35:41.431Z,36.45
2023-05-12T07:38:13.282Z,36.17
2023-05-12T07:40:45.400Z,35.99
2023-05-12T07:43:18.187Z,36.12
2023-05-12T07:45:49.875Z,36.37
2023-05-12T07:48:21.883Z,34.65
2023-05-12T07:50:53.747Z,34.99
2023-05-12T07:53:25.662Z,34.68
2023-05-12T07:55:57.275Z,33.45
2023-05-12T07:58:28.844Z,33.58
2023-05-12T08:01:02.497Z,34.00
2023-05-12T08:03:35.946Z,33.93
2023-05-12T08:06:08.415Z,33.88
2023-05-12T08:08:40.088Z,33.96
2023-05-12T08:11:12.819Z,33.37
2023-05-12T08:13:45.142Z,33.34
2023-05-12T08:16:17.627Z,32.41
2023-05-12T08:18:50.167Z,31.42
2023-05-12T08:21:22.030Z,30.43
2023-05-12T08:23:53.715Z,31.02
2023-05-12T08:26:25.533Z,31.00
2023-05-12T08:28:57.301Z,30.03
2023-05-12T08:31:29.049Z,30.12
2023-05-12T08:34:09.863Z,30.92
2023-05-12T08:36:34.860Z,31.40
2023-05-12T08:39:06.812Z,30.50
2023-05-12T08:41:59.802Z,30.02
2023-05-12T08:44:32.102Z,30.31
2023-05-12T08:47:03.866Z,28.29
2023-05-12T08:49:36.957Z,29.38
2023-05-12T08:52:09.206Z,28.72
2023-05-12T08:54:52.246Z,29.13
2023-05-12T08:57:14.631Z,28.90
2023-05-12T08:59:46.436Z,27.17
2023-05-12T09:02:18.751Z,28.17
2023-05-12T09:04:51.533Z,27.98
2023-05-12T09:07:26.903Z,26.46
2023-05-12T09:09:59.605Z,26.64
2023-05-12T09:12:32.828Z,27.73
2023-05-12T09:15:11.023Z,27.83
2023-05-12T09:17:42.874Z,27.00
2023-05-12T09:20:27.957Z,26.45
2023-05-12T09:22:48.340Z,27.27
2023-05-12T09:25:21.954Z,27.71
2023-05-12T09:27:56.884Z,27.31
2023-05-12T09:30:34.163Z,27.54
2023-05-12T09:33:10.004Z,27.09
2023-05-12T09:35:43.308Z,27.29
2023-05-12T09:38:15.908Z,27.19
2023-05-12T09:40:47.581Z,25.65
2023-05-12T09:43:21.049Z,25.31
2023-05-12T09:45:52.688Z,25.72
2023-05-12T09:48:27.426Z,26.47
2023-05-12T09:50:58.820Z,26.41
2023-05-12T09:53:30.512Z,26.12
2023-05-12T09:56:02.498Z,25.70
2023-05-12T09:58:34.462Z,25.75
2023-05-12T10:01:21.894Z,26.16
2023-05-12T10:03:40.321Z,26.45
2023-05-12T10:06:15.735Z,26.29
2023-05-12T10:09:11.806Z,26.07
2023-05-12T10:11:44.418Z,26.54
2023-05-12T10:14:16.012Z,27.36
2023-05-12T10:16:47.757Z,27.75
2023-05-12T10:19:19.718Z,27.92
2023-05-12T10:21:51.502Z,26.99
2023-05-12T10:24:23.348Z,28.33
2023-05-12T10:26:59.725Z,28.32
2023-05-12T10:29:33.156Z,26.34
2023-05-12T10:32:04.863Z,26.70
2023-05-12T10:34:38.122Z,25.68
2023-05-12T10:37:11.763Z,25.22
2023-05-12T10:39:50.899Z,25.59
2023-05-12T10:42:25.333Z,27.28
2023-05-12T10:44:57.499Z,26.39
2023-05-12T10:47:39.616Z,24.76
2023-05-12T10:50:14.864Z,26.21
2023-05-12T10:52:59.050Z,25.86
2023-05-12T10:55:35.212Z,24.41
2023-05-12T10:58:13.640Z,25.45
2023-05-12T11:00:55.553Z,26.03
2023-05-12T11:03:28.991Z,26.10
2023-05-12T11:06:05.757Z,25.66
2023-05-12T11:08:39.912Z,25.41
2023-05-12T11:11:11.989Z,25.51
2023-05-12T11:13:43.663Z,25.98
2023-05-12T11:16:16.524Z,25.98
2023-05-12T11:18:48.619Z,25.45
2023-05-12T11:21:20.317Z,26.26
2023-05-12T11:23:52.753Z,27.50
2023-05-12T11:26:24.256Z,26.27
2023-05-12T11:28:58.760Z,25.72
2023-05-12T11:31:30.491Z,25.64
2023-05-12T11:34:13.277Z,25.24
2023-05-12T11:36:42.845Z,25.80
2023-05-12T11:39:18.401Z,26.27
2023-05-12T11:41:56.581Z,25.68
2023-05-12T11:44:27.025Z,25.76
2023-05-12T11:47:13.996Z,26.51
2023-05-12T11:49:50.206Z,26.90
2023-05-12T11:52:23.133Z,27.18
2023-05-12T11:54:58.753Z,26.40
2023-05-12T11:57:32.380Z,26.66
2023-05-12T12:00:09.647Z,26.59
2023-05-12T12:02:43.507Z,26.73
2023-05-12T12:05:20.022Z,28.33
2023-05-12T12:07:52.053Z,27.21
2023-05-12T12:10:23.962Z,27.68
2023-05-12T12:12:56.178Z,27.70
2023-05-12T12:15:28.578Z,27.40
2023-05-12T12:18:00.269Z,28.65
2023-05-12T12:20:32.129Z,27.76
2023-05-12T12:23:03.735Z,27.17
2023-05-12T12:25:35.754Z,26.67
2023-05-12T12:28:08.442Z,26.47
2023-05-12T12:30:40.033Z,25.53
2023-05-12T12:33:11.715Z,25.58
2023-05-12T12:35:43.414Z,25.83
2023-05-12T12:38:19.758Z,26.50
2023-05-12T12:40:51.722Z,25.17
2023-05-12T12:43:23.665Z,25.42
2023-05-12T12:45:55.540Z,26.56
2023-05-12T12:48:28.728Z,26.09
2023-05-12T12:51:00.687Z,26.51
2023-05-12T12:53:32.561Z,27.28
2023-05-12T12:56:05.304Z,27.39
2023-05-12T12:58:37.309Z,27.15
2023-05-12T13:01:09.687Z,27.34
2023-05-12T13:03:41.554Z,27.47
2023-05-12T13:06:13.386Z,28.35
2023-05-12T13:08:45.259Z,28.47
2023-05-12T13:11:17.038Z,28.08
2023-05-12T13:13:48.625Z,28.18
2023-05-12T13:16:20.282Z,28.45
2023-05-12T13:18:51.988Z,28.25
2023-05-12T13:21:23.676Z,28.44
2023-05-12T13:23:55.605Z,27.56
2023-05-12T13:26:27.332Z,27.89
2023-05-12T13:28:59.061Z,27.25
2023-05-12T13:31:32.424Z,27.51
2023-05-12T13:34:04.110Z,27.84
2023-05-12T13:36:36.592Z,27.82
2023-05-12T13:39:10.091Z,27.56
2023-05-12T13:41:41.983Z,27.43
2023-05-12T13:44:13.848Z,27.35
2023-05-12T13:46:46.568Z,27.60
2023-05-12T13:49:19.852Z,27.80
2023-05-12T13:51:51.758Z,27.15
2023-05-12T13:54:24.924Z,26.87
2023-05-12T13:56:56.667Z,26.93
2023-05-12T13:59:28.210Z,27.20
2023-05-12T14:02:00.893Z,27.56
2023-05-12T14:04:32.794Z,27.57
2023-05-12T14:07:06.583Z,26.69
2023-05-12T14:09:38.821Z,27.07
2023-05-12T14:12:11.295Z,27.06
2023-05-12T14:14:45.023Z,27.32
2023-05-12T14:17:18.715Z,27.53
2023-05-12T14:19:50.808Z,27.96
2023-05-12T14:22:26.361Z,28.19
2023-05-12T14:24:56.854Z,28.85
2023-05-12T14:27:29.104Z,28.87
2023-05-12T14:30:01.061Z,28.79
2023-05-12T14:32:34.396Z,29.07
2023-05-12T14:35:08.259Z,28.66
2023-05-12T14:37:40.441Z,28.51
2023-05-12T14:40:13.814Z,28.88
2023-05-12T14:42:45.501Z,28.68
2023-05-12T14:45:18.023Z,29.52
2023-05-12T14:47:50.187Z,29.54
2023-05-12T14:50:23.624Z,29.30
2023-05-12T14:52:55.646Z,29.48
2023-05-12T14:55:28.350Z,29.32
2023-05-12T14:58:00.497Z,29.40
2023-05-12T15:00:33.447Z,29.50
2023-05-12T15:03:05.766Z,29.72
2023-05-12T15:05:56.675Z,29.91
2023-05-12T15:08:13.461Z,29.98
2023-05-12T15:10:45.682Z,30.36
2023-05-12T15:13:19.187Z,30.11
2023-05-12T15:15:51.886Z,29.88
2023-05-12T15:18:24.599Z,30.22
2023-05-12T15:20:56.409Z,29.67
2023-05-12T15:23:28.120Z,29.85
2023-05-12T15:26:06.944Z,30.49
2023-05-12T15:28:33.404Z,30.41
2023-05-12T15:31:05.150Z,30.25
2023-05-12T15:33:38.585Z,30.23
2023-05-12T15:36:11.621Z,30.86
2023-05-12T15:38:43.572Z,30.49
2023-05-12T15:41:15.291Z,30.71
2023-05-12T15:43:47.059Z,30.73
2023-05-12T15:46:18.941Z,30.72
2023-05-12T15:48:50.689Z,30.90
2023-05-12T15:51:22.441Z,30.89
2023-05-12T15:53:54.345Z,30.77
2023-05-12T15:56:25.922Z,29.78
2023-05-12T15:58:57.553Z,29.76
2023-05-12T16:01:29.169Z,29.73
2023-05-12T16:04:01.450Z,29.59
2023-05-12T16:06:33.192Z,29.73
2023-05-12T16:09:05.015Z,29.80
2023-05-12T16:11:36.785Z,30.06
2023-05-12T16:14:08.583Z,30.29
2023-05-12T16:16:41.930Z,30.26
2023-05-12T16:19:13.799Z,30.30
2023-05-12T16:21:45.488Z,30.49
2023-05-12T16:24:17.704Z,30.62
2023-05-12T16:26:49.505Z,30.69
2023-05-12T16:29:23.189Z,30.93
2023-05-12T16:31:54.795Z,30.84
2023-05-12T16:34:26.426Z,31.04
2023-05-12T16:36:58.257Z,30.87
2023-05-12T16:39:31.809Z,31.44
2023-05-12T16:42:03.555Z,31.72
2023-05-12T16:44:35.268Z,31.25
2023-05-12T16:47:07.286Z,31.09
2023-05-12T16:49:39.164Z,30.93
2023-05-12T16:52:12.538Z,30.86
2023-05-12T16:54:45.099Z,31.17
2023-05-12T16:57:18.286Z,31.15
2023-05-12T16:59:49.832Z,31.73
2023-05-12T17:02:22.085Z,31.91
2023-05-12T17:04:54.023Z,32.79
2023-05-12T17:07:26.503Z,32.46
2023-05-12T17:09:58.153Z,32.92
2023-05-12T17:12:30.092Z,33.04
2023-05-12T17:15:22.215Z,33.00
2023-05-12T17:17:36.272Z,33.32
2023-05-12T17:20:09.235Z,33.37
2023-05-12T17:22:42.640Z,33.70
2023-05-12T17:25:15.630Z,33.84
2023-05-12T17:27:49.326Z,34.22
2023-05-12T17:30:21.348Z,34.85
2023-05-12T17:32:53.864Z,34.77
2023-05-12T17:35:25.673Z,34.85
2023-05-12T17:37:57.751Z,35.11
2023-05-12T17:40:29.457Z,35.34
2023-05-12T17:43:01.224Z,35.60
2023-05-12T17:45:33.172Z,35.98
2023-05-12T17:48:06.402Z,36.35
2023-05-12T17:50:39.390Z,36.26
2023-05-12T17:53:11.579Z,36.35
2023-05-12T17:55:43.175Z,36.75
2023-05-12T17:58:15.623Z,36.87
2023-05-12T18:00:47.854Z,36.98
2023-05-12T18:03:21.571Z,37.16
2023-05-12T18:05:54.697Z,37.15
2023-05-12T18:08:27.338Z,37.38
2023-05-12T18:10:59.101Z,37.21
2023-05-12T18:13:31.152Z,37.44
2023-05-12T18:16:03.270Z,37.22
2023-05-12T18:18:35.782Z,37.25
2023-05-12T18:21:08.325Z,37.74
2023-05-12T18:23:40.366Z,37.44
2023-05-12T18:26:12.075Z,37.83
2023-05-12T18:28:43.933Z,38.15
2023-05-12T18:31:16.613Z,38.01
2023-05-12T18:33:49.944Z,37.94
2023-05-12T18:36:22.004Z,38.00
2023-05-12T18:38:54.369Z,38.35
2023-05-12T18:41:26.550Z,38.14
2023-05-12T18:43:58.634Z,37.81
2023-05-12T18:46:31.285Z,37.71
2023-05-12T18:49:04.026Z,38.57
2023-05-12T18:51:36.492Z,38.65
2023-05-12T18:54:08.194Z,38.84
2023-05-12T18:56:40.888Z,39.20
2023-05-12T18:59:13.426Z,41.59
2023-05-12T19:01:46.200Z,41.32
2023-05-12T19:04:19.663Z,41.55
2023-05-12T19:06:52.132Z,41.62
2023-05-12T19:09:24.108Z,40.97
2023-05-12T19:11:56.344Z,40.06
2023-05-12T19:14:28.359Z,40.92
2023-05-12T19:17:00.050Z,41.31
2023-05-12T19:19:32.123Z,42.61
2023-05-12T19:22:04.489Z,42.96
2023-05-12T19:24:38.371Z,44.33
2023-05-12T19:27:11.889Z,43.79
2023-05-12T19:29:44.308Z,43.47
2023-05-12T19:32:16.770Z,43.22
2023-05-12T19:34:51.428Z,43.11
2023-05-12T19:37:23.272Z,43.81
2023-05-12T19:39:54.998Z,42.79
2023-05-12T19:42:27.704Z,42.57
2023-05-12T19:45:00.803Z,42.28
2023-05-12T19:47:33.860Z,42.19
2023-05-12T19:50:07.358Z,42.58
2023-05-12T19:52:39.946Z,42.88
2023-05-12T19:55:12.054Z,42.88
2023-05-12T19:57:45.123Z,42.67
2023-05-12T20:00:17.650Z,43.08
2023-05-12T20:02:51.737Z,43.42
2023-05-12T20:05:23.539Z,43.72
2023-05-12T20:07:56.652Z,44.21
2023-05-12T20:10:28.435Z,44.27
2023-05-12T20:13:02.678Z,44.91
2023-05-12T20:15:34.387Z,45.36
2023-05-12T20:18:06.441Z,44.82
2023-05-12T20:20:38.304Z,45.21
2023-05-12T20:23:09.949Z,45.16
2023-05-12T20:25:41.600Z,44.62
2023-05-12T20:28:14.054Z,44.80
2023-05-12T20:30:46.104Z,45.16
2023-05-12T20:33:18.149Z,44.91
2023-05-12T20:35:50.139Z,44.54
2023-05-12T20:38:24.348Z,44.51
2023-05-12T20:40:55.970Z,44.44
2023-05-12T20:43:28.184Z,44.52
2023-05-12T20:46:00.183Z,45.05
2023-05-12T20:48:32.877Z,44.71
2023-05-12T20:51:12.153Z,44.96
2023-05-12T20:53:44.018Z,45.04
2023-05-12T20:56:15.869Z,45.09
2023-05-12T20:58:47.496Z,45.18
2023-05-12T21:01:19.481Z,45.26
2023-05-12T21:03:51.293Z,45.43
2023-05-12T21:06:23.075Z,45.55
2023-05-12T21:08:54.912Z,45.59
2023-05-12T21:11:26.999Z,45.94
2023-05-12T21:13:58.692Z,46.28
2023-05-12T21:16:30.717Z,46.51
2023-05-12T21:19:02.910Z,47.42
2023-05-12T21:21:35.517Z,47.46
2023-05-12T21:24:07.764Z,47.39
2023-05-12T21:26:39.560Z,47.43
2023-05-12T21:29:11.259Z,47.65
2023-05-12T21:31:43.057Z,48.02
2023-05-12T21:34:15.333Z,47.93
2023-05-12T21:36:47.006Z,48.25
2023-05-12T21:39:18.613Z,48.41
2023-05-12T21:41:50.474Z,48.47
2023-05-12T21:44:22.123Z,48.84
2023-05-12T21:46:53.818Z,48.97
2023-05-12T21:49:46.716Z,48.89
2023-05-12T21:52:18.552Z,49.17
2023-05-12T21:54:50.766Z,49.32
2023-05-12T21:57:22.758Z,49.28
2023-05-12T21:59:56.303Z,49.63
2023-05-12T22:02:27.872Z,49.82
2023-05-12T22:04:59.797Z,50.04
2023-05-12T22:07:31.884Z,50.39
2023-05-12T22:10:04.634Z,50.51
2023-05-12T22:12:37.702Z,50.36
2023-05-12T22:15:11.210Z,50.38
2023-05-12T22:17:43.289Z,50.44
2023-05-12T22:20:16.647Z,50.49
2023-05-12T22:22:49.268Z,50.73
2023-05-12T22:25:20.920Z,50.85
2023-05-12T22:27:52.672Z,51.32
2023-05-12T22:30:25.057Z,51.79
2023-05-12T22:32:57.448Z,52.03
2023-05-12T22:35:29.737Z,52.03
2023-05-12T22:38:01.795Z,52.29
2023-05-12T22:40:33.902Z,52.60
2023-05-12T22:43:07.002Z,52.69
2023-05-12T22:45:39.252Z,52.95
2023-05-12T22:50:55.324Z,53.78
2023-05-12T22:53:27.351Z,54.07
2023-05-12T22:55:59.016Z,54.22
2023-05-12T22:58:31.492Z,54.54
2023-05-12T23:01:03.164Z,55.02
2023-05-12T23:03:36.195Z,55.45
2023-05-12T23:06:08.094Z,55.71
2023-05-12T23:08:40.444Z,56.01
2023-05-12T23:11:13.005Z,56.47
2023-05-12T23:13:44.881Z,56.92
2023-05-12T23:16:16.687Z,57.35
2023-05-12T23:18:49.222Z,57.32
2023-05-12T23:21:20.909Z,57.34
2023-05-12T23:23:52.969Z,57.56
2023-05-12T23:26:24.642Z,57.69
2023-05-12T23:28:56.679Z,57.52
2023-05-12T23:31:28.594Z,57.78
2023-05-12T23:34:00.649Z,57.92
2023-05-12T23:36:32.738Z,58.04
2023-05-12T23:39:04.472Z,58.23
2023-05-12T23:41:37.489Z,58.27
2023-05-12T23:44:09.831Z,58.52
2023-05-12T23:46:42.274Z,58.98
2023-05-12T23:49:26.456Z,59.11
2023-05-12T23:51:59.522Z,59.38
2023-05-12T23:54:31.509Z,59.73
2023-05-12T23:57:03.376Z,60.03
2023-05-12T23:59:35.153Z,60.63
